sensor_id;sensor_type;location;lat;lon;timestamp;P1;durP1;ratioP1;P2;durP2;ratioP2
24617;SDS011;12762;51.730;5.356;2022-10-22T00:02:26;6.23;;;2.70;;
24617;SDS011;12762;51.730;5.356;2022-10-22T00:04:53;6.77;;;2.70;;
24617;SDS011;12762;51.730;5.356;2022-10-22T00:07:22;6.13;;;2.53;;
24617;SDS011;12762;51.730;5.356;2022-10-22T00:09:50;5.40;;;2.47;;
24617;SDS011;12762;51.730;5.356;2022-10-22T00:12:20;9.83;;;2.87;;
24617;SDS011;12762;51.730;5.356;2022-10-22T00:14:47;6.03;;;2.73;;
24617;SDS011;12762;51.730;5.356;2022-10-22T00:17:14;6.80;;;3.00;;
24617;SDS011;12762;51.730;5.356;2022-10-22T00:19:42;6.90;;;2.83;;
24617;SDS011;12762;51.730;5.356;2022-10-22T00:22:10;7.53;;;2.83;;
24617;SDS011;12762;51.730;5.356;2022-10-22T00:24:37;6.63;;;2.93;;
24617;SDS011;12762;51.730;5.356;2022-10-22T00:27:06;9.87;;;3.10;;
24617;SDS011;12762;51.730;5.356;2022-10-22T00:29:33;7.70;;;3.00;;
24617;SDS011;12762;51.730;5.356;2022-10-22T00:32:00;10.53;;;3.53;;
24617;SDS011;12762;51.730;5.356;2022-10-22T00:34:28;11.27;;;3.10;;
24617;SDS011;12762;51.730;5.356;2022-10-22T00:36:55;6.57;;;3.03;;
24617;SDS011;12762;51.730;5.356;2022-10-22T00:39:22;7.03;;;3.10;;
24617;SDS011;12762;51.730;5.356;2022-10-22T00:41:50;14.53;;;3.93;;
24617;SDS011;12762;51.730;5.356;2022-10-22T00:47:23;6.07;;;2.70;;
24617;SDS011;12762;51.730;5.356;2022-10-22T00:49:50;7.27;;;2.90;;
24617;SDS011;12762;51.730;5.356;2022-10-22T00:52:19;10.33;;;3.70;;
24617;SDS011;12762;51.730;5.356;2022-10-22T00:54:47;11.27;;;3.30;;
24617;SDS011;12762;51.730;5.356;2022-10-22T00:57:16;9.03;;;3.67;;
24617;SDS011;12762;51.730;5.356;2022-10-22T00:59:44;6.67;;;3.73;;
24617;SDS011;12762;51.730;5.356;2022-10-22T01:02:12;7.37;;;3.40;;
24617;SDS011;12762;51.730;5.356;2022-10-22T01:04:39;10.13;;;3.93;;
24617;SDS011;12762;51.730;5.356;2022-10-22T01:07:08;7.63;;;3.33;;
24617;SDS011;12762;51.730;5.356;2022-10-22T01:15:35;7.03;;;3.73;;
24617;SDS011;12762;51.730;5.356;2022-10-22T01:24:05;10.30;;;3.80;;
24617;SDS011;12762;51.730;5.356;2022-10-22T01:29:50;8.23;;;3.20;;
24617;SDS011;12762;51.730;5.356;2022-10-22T01:32:51;10.03;;;4.27;;
24617;SDS011;12762;51.730;5.356;2022-10-22T01:35:33;10.77;;;3.83;;
24617;SDS011;12762;51.730;5.356;2022-10-22T01:38:04;8.60;;;3.40;;
24617;SDS011;12762;51.730;5.356;2022-10-22T01:40:36;10.33;;;3.60;;
24617;SDS011;12762;51.730;5.356;2022-10-22T01:43:04;9.33;;;3.77;;
24617;SDS011;12762;51.730;5.356;2022-10-22T01:45:42;13.03;;;3.90;;
24617;SDS011;12762;51.730;5.356;2022-10-22T01:48:25;11.17;;;3.93;;
24617;SDS011;12762;51.730;5.356;2022-10-22T01:51:02;6.93;;;3.63;;
24617;SDS011;12762;51.730;5.356;2022-10-22T01:53:49;7.00;;;3.40;;
24617;SDS011;12762;51.730;5.356;2022-10-22T01:59:28;6.07;;;3.47;;
24617;SDS011;12762;51.730;5.356;2022-10-22T02:05:03;9.07;;;3.70;;
24617;SDS011;12762;51.730;5.356;2022-10-22T02:07:48;7.43;;;3.27;;
24617;SDS011;12762;51.730;5.356;2022-10-22T02:10:19;7.20;;;3.87;;
24617;SDS011;12762;51.730;5.356;2022-10-22T02:12:48;10.30;;;3.40;;
24617;SDS011;12762;51.730;5.356;2022-10-22T02:15:19;8.97;;;3.80;;
24617;SDS011;12762;51.730;5.356;2022-10-22T02:17:49;8.63;;;3.47;;
24617;SDS011;12762;51.730;5.356;2022-10-22T02:20:27;8.87;;;4.27;;
24617;SDS011;12762;51.730;5.356;2022-10-22T02:22:56;8.30;;;4.07;;
24617;SDS011;12762;51.730;5.356;2022-10-22T02:25:26;9.80;;;3.70;;
24617;SDS011;12762;51.730;5.356;2022-10-22T02:28:00;9.27;;;3.23;;
24617;SDS011;12762;51.730;5.356;2022-10-22T02:30:40;9.43;;;3.53;;
24617;SDS011;12762;51.730;5.356;2022-10-22T02:35:51;8.27;;;3.70;;
24617;SDS011;12762;51.730;5.356;2022-10-22T02:38:21;6.43;;;3.37;;
24617;SDS011;12762;51.730;5.356;2022-10-22T02:40:50;11.20;;;4.03;;
24617;SDS011;12762;51.730;5.356;2022-10-22T02:43:19;9.37;;;3.40;;
24617;SDS011;12762;51.730;5.356;2022-10-22T02:45:45;8.67;;;3.70;;
24617;SDS011;12762;51.730;5.356;2022-10-22T02:48:12;9.00;;;3.33;;
24617;SDS011;12762;51.730;5.356;2022-10-22T02:50:39;9.43;;;3.50;;
24617;SDS011;12762;51.730;5.356;2022-10-22T02:53:06;6.17;;;3.27;;
24617;SDS011;12762;51.730;5.356;2022-10-22T02:55:33;12.10;;;3.87;;
24617;SDS011;12762;51.730;5.356;2022-10-22T02:58:00;9.17;;;3.47;;
24617;SDS011;12762;51.730;5.356;2022-10-22T03:00:27;8.97;;;3.63;;
24617;SDS011;12762;51.730;5.356;2022-10-22T03:02:54;11.50;;;4.07;;
24617;SDS011;12762;51.730;5.356;2022-10-22T03:05:23;12.37;;;4.03;;
24617;SDS011;12762;51.730;5.356;2022-10-22T03:07:49;13.13;;;4.17;;
24617;SDS011;12762;51.730;5.356;2022-10-22T03:10:16;8.13;;;3.70;;
24617;SDS011;12762;51.730;5.356;2022-10-22T03:12:43;12.83;;;4.20;;
24617;SDS011;12762;51.730;5.356;2022-10-22T03:15:10;7.80;;;3.87;;
24617;SDS011;12762;51.730;5.356;2022-10-22T03:17:37;12.77;;;3.70;;
24617;SDS011;12762;51.730;5.356;2022-10-22T03:20:04;15.50;;;3.97;;
24617;SDS011;12762;51.730;5.356;2022-10-22T03:22:31;11.73;;;4.20;;
24617;SDS011;12762;51.730;5.356;2022-10-22T03:25:02;8.80;;;3.80;;
24617;SDS011;12762;51.730;5.356;2022-10-22T03:27:33;9.10;;;3.90;;
24617;SDS011;12762;51.730;5.356;2022-10-22T03:30:03;15.53;;;4.00;;
24617;SDS011;12762;51.730;5.356;2022-10-22T03:32:33;12.83;;;4.13;;
24617;SDS011;12762;51.730;5.356;2022-10-22T03:34:59;8.87;;;4.17;;
24617;SDS011;12762;51.730;5.356;2022-10-22T03:37:27;11.90;;;4.13;;
24617;SDS011;12762;51.730;5.356;2022-10-22T03:39:53;12.90;;;4.50;;
24617;SDS011;12762;51.730;5.356;2022-10-22T03:42:21;11.23;;;3.60;;
24617;SDS011;12762;51.730;5.356;2022-10-22T03:44:48;11.40;;;4.30;;
24617;SDS011;12762;51.730;5.356;2022-10-22T03:47:17;13.67;;;4.00;;
24617;SDS011;12762;51.730;5.356;2022-10-22T03:49:44;10.73;;;3.70;;
24617;SDS011;12762;51.730;5.356;2022-10-22T03:52:13;9.77;;;3.80;;
24617;SDS011;12762;51.730;5.356;2022-10-22T03:54:40;15.73;;;4.00;;
24617;SDS011;12762;51.730;5.356;2022-10-22T03:57:07;7.80;;;3.40;;
24617;SDS011;12762;51.730;5.356;2022-10-22T03:59:35;9.10;;;3.77;;
24617;SDS011;12762;51.730;5.356;2022-10-22T04:02:07;14.57;;;4.43;;
24617;SDS011;12762;51.730;5.356;2022-10-22T04:04:35;8.67;;;4.03;;
24617;SDS011;12762;51.730;5.356;2022-10-22T04:07:03;12.67;;;4.23;;
24617;SDS011;12762;51.730;5.356;2022-10-22T04:09:32;8.13;;;3.37;;
24617;SDS011;12762;51.730;5.356;2022-10-22T04:11:59;8.20;;;3.67;;
24617;SDS011;12762;51.730;5.356;2022-10-22T04:14:27;10.20;;;3.80;;
24617;SDS011;12762;51.730;5.356;2022-10-22T04:16:53;10.13;;;4.17;;
24617;SDS011;12762;51.730;5.356;2022-10-22T04:19:20;7.43;;;3.70;;
24617;SDS011;12762;51.730;5.356;2022-10-22T04:21:47;11.23;;;3.57;;
24617;SDS011;12762;51.730;5.356;2022-10-22T04:24:14;13.73;;;3.73;;
24617;SDS011;12762;51.730;5.356;2022-10-22T04:26:41;11.50;;;3.90;;
24617;SDS011;12762;51.730;5.356;2022-10-22T04:29:08;12.23;;;4.23;;
24617;SDS011;12762;51.730;5.356;2022-10-22T04:31:41;15.30;;;4.43;;
24617;SDS011;12762;51.730;5.356;2022-10-22T04:34:08;10.17;;;3.47;;
24617;SDS011;12762;51.730;5.356;2022-10-22T04:36:34;10.77;;;3.87;;
24617;SDS011;12762;51.730;5.356;2022-10-22T04:39:02;11.93;;;3.53;;
24617;SDS011;12762;51.730;5.356;2022-10-22T04:41:32;12.07;;;4.47;;
24617;SDS011;12762;51.730;5.356;2022-10-22T04:44:01;13.23;;;3.70;;
24617;SDS011;12762;51.730;5.356;2022-10-22T04:46:30;12.67;;;4.27;;
24617;SDS011;12762;51.730;5.356;2022-10-22T04:49:01;10.73;;;4.00;;
24617;SDS011;12762;51.730;5.356;2022-10-22T04:51:29;13.13;;;3.97;;
24617;SDS011;12762;51.730;5.356;2022-10-22T04:53:56;9.77;;;3.90;;
24617;SDS011;12762;51.730;5.356;2022-10-22T04:56:27;10.87;;;3.90;;
24617;SDS011;12762;51.730;5.356;2022-10-22T04:59:03;11.03;;;3.60;;
24617;SDS011;12762;51.730;5.356;2022-10-22T05:01:32;12.00;;;4.03;;
24617;SDS011;12762;51.730;5.356;2022-10-22T05:04:09;13.63;;;4.47;;
24617;SDS011;12762;51.730;5.356;2022-10-22T05:06:39;12.90;;;4.00;;
24617;SDS011;12762;51.730;5.356;2022-10-22T05:09:08;11.63;;;3.60;;
24617;SDS011;12762;51.730;5.356;2022-10-22T05:11:38;15.13;;;4.10;;
24617;SDS011;12762;51.730;5.356;2022-10-22T05:14:16;9.33;;;3.90;;
24617;SDS011;12762;51.730;5.356;2022-10-22T05:16:45;11.37;;;3.57;;
24617;SDS011;12762;51.730;5.356;2022-10-22T05:19:22;6.93;;;3.13;;
24617;SDS011;12762;51.730;5.356;2022-10-22T05:21:51;13.93;;;3.70;;
24617;SDS011;12762;51.730;5.356;2022-10-22T05:24:20;9.70;;;3.53;;
24617;SDS011;12762;51.730;5.356;2022-10-22T05:26:48;13.47;;;3.53;;
24617;SDS011;12762;51.730;5.356;2022-10-22T05:29:18;11.80;;;3.83;;
24617;SDS011;12762;51.730;5.356;2022-10-22T05:31:45;11.77;;;3.70;;
24617;SDS011;12762;51.730;5.356;2022-10-22T05:34:12;8.93;;;3.50;;
24617;SDS011;12762;51.730;5.356;2022-10-22T05:36:39;10.67;;;3.60;;
24617;SDS011;12762;51.730;5.356;2022-10-22T05:39:06;10.83;;;3.30;;
24617;SDS011;12762;51.730;5.356;2022-10-22T05:41:33;8.90;;;3.33;;
24617;SDS011;12762;51.730;5.356;2022-10-22T05:44:02;6.93;;;3.30;;
24617;SDS011;12762;51.730;5.356;2022-10-22T05:46:29;9.63;;;3.30;;
24617;SDS011;12762;51.730;5.356;2022-10-22T05:49:00;11.13;;;3.57;;
24617;SDS011;12762;51.730;5.356;2022-10-22T05:51:30;5.33;;;3.03;;
24617;SDS011;12762;51.730;5.356;2022-10-22T05:54:00;7.53;;;3.17;;
24617;SDS011;12762;51.730;5.356;2022-10-22T05:56:28;10.43;;;3.37;;
24617;SDS011;12762;51.730;5.356;2022-10-22T05:58:57;14.53;;;3.67;;
24617;SDS011;12762;51.730;5.356;2022-10-22T06:01:26;9.00;;;3.10;;
24617;SDS011;12762;51.730;5.356;2022-10-22T06:03:55;10.63;;;3.10;;
24617;SDS011;12762;51.730;5.356;2022-10-22T06:08:53;11.40;;;3.53;;
24617;SDS011;12762;51.730;5.356;2022-10-22T06:11:21;9.00;;;3.50;;
24617;SDS011;12762;51.730;5.356;2022-10-22T06:13:55;14.90;;;2.63;;
24617;SDS011;12762;51.730;5.356;2022-10-22T06:16:21;8.60;;;2.67;;
24617;SDS011;12762;51.730;5.356;2022-10-22T06:18:48;13.30;;;2.90;;
24617;SDS011;12762;51.730;5.356;2022-10-22T06:21:15;9.37;;;2.77;;
24617;SDS011;12762;51.730;5.356;2022-10-22T06:23:42;11.57;;;2.53;;
24617;SDS011;12762;51.730;5.356;2022-10-22T06:26:09;9.57;;;2.30;;
24617;SDS011;12762;51.730;5.356;2022-10-22T06:28:37;6.33;;;2.47;;
24617;SDS011;12762;51.730;5.356;2022-10-22T06:31:06;10.80;;;2.70;;
24617;SDS011;12762;51.730;5.356;2022-10-22T06:33:34;8.93;;;2.77;;
24617;SDS011;12762;51.730;5.356;2022-10-22T06:36:08;8.53;;;2.47;;
24617;SDS011;12762;51.730;5.356;2022-10-22T06:38:40;9.03;;;2.33;;
24617;SDS011;12762;51.730;5.356;2022-10-22T06:41:08;9.23;;;2.27;;
24617;SDS011;12762;51.730;5.356;2022-10-22T06:43:37;8.90;;;2.83;;
24617;SDS011;12762;51.730;5.356;2022-10-22T06:46:05;10.70;;;2.43;;
24617;SDS011;12762;51.730;5.356;2022-10-22T06:48:35;7.80;;;2.03;;
24617;SDS011;12762;51.730;5.356;2022-10-22T06:51:03;10.73;;;2.33;;
24617;SDS011;12762;51.730;5.356;2022-10-22T06:53:34;11.80;;;2.47;;
24617;SDS011;12762;51.730;5.356;2022-10-22T06:56:10;9.73;;;2.40;;
24617;SDS011;12762;51.730;5.356;2022-10-22T06:58:39;8.77;;;2.40;;
24617;SDS011;12762;51.730;5.356;2022-10-22T07:01:10;8.50;;;2.40;;
24617;SDS011;12762;51.730;5.356;2022-10-22T07:03:41;7.23;;;2.37;;
24617;SDS011;12762;51.730;5.356;2022-10-22T07:06:10;10.03;;;2.37;;
24617;SDS011;12762;51.730;5.356;2022-10-22T07:08:38;8.60;;;2.50;;
24617;SDS011;12762;51.730;5.356;2022-10-22T07:13:50;7.07;;;2.30;;
24617;SDS011;12762;51.730;5.356;2022-10-22T07:16:18;11.67;;;2.50;;
24617;SDS011;12762;51.730;5.356;2022-10-22T07:18:45;6.10;;;2.20;;
24617;SDS011;12762;51.730;5.356;2022-10-22T07:21:16;8.90;;;2.40;;
24617;SDS011;12762;51.730;5.356;2022-10-22T07:23:44;6.83;;;2.17;;
24617;SDS011;12762;51.730;5.356;2022-10-22T07:26:15;9.47;;;2.57;;
24617;SDS011;12762;51.730;5.356;2022-10-22T07:28:42;8.10;;;2.37;;
24617;SDS011;12762;51.730;5.356;2022-10-22T07:31:10;12.30;;;2.40;;
24617;SDS011;12762;51.730;5.356;2022-10-22T07:33:38;8.77;;;2.07;;
24617;SDS011;12762;51.730;5.356;2022-10-22T07:36:06;10.33;;;2.40;;
24617;SDS011;12762;51.730;5.356;2022-10-22T07:38:34;9.50;;;1.93;;
24617;SDS011;12762;51.730;5.356;2022-10-22T07:41:06;10.53;;;1.70;;
24617;SDS011;12762;51.730;5.356;2022-10-22T07:43:32;7.27;;;2.43;;
24617;SDS011;12762;51.730;5.356;2022-10-22T07:45:59;10.43;;;2.27;;
24617;SDS011;12762;51.730;5.356;2022-10-22T07:48:28;10.67;;;2.20;;
24617;SDS011;12762;51.730;5.356;2022-10-22T07:50:55;9.60;;;2.07;;
24617;SDS011;12762;51.730;5.356;2022-10-22T07:53:23;5.20;;;1.77;;
24617;SDS011;12762;51.730;5.356;2022-10-22T07:55:50;11.93;;;2.47;;
24617;SDS011;12762;51.730;5.356;2022-10-22T07:58:17;6.50;;;2.20;;
24617;SDS011;12762;51.730;5.356;2022-10-22T08:00:48;6.27;;;1.97;;
24617;SDS011;12762;51.730;5.356;2022-10-22T08:03:16;7.83;;;2.23;;
24617;SDS011;12762;51.730;5.356;2022-10-22T08:05:45;7.17;;;2.20;;
24617;SDS011;12762;51.730;5.356;2022-10-22T08:08:13;9.80;;;1.80;;
24617;SDS011;12762;51.730;5.356;2022-10-22T08:10:42;9.00;;;1.90;;
24617;SDS011;12762;51.730;5.356;2022-10-22T08:13:09;8.37;;;1.80;;
24617;SDS011;12762;51.730;5.356;2022-10-22T08:15:36;6.77;;;2.43;;
24617;SDS011;12762;51.730;5.356;2022-10-22T08:18:04;7.70;;;1.87;;
24617;SDS011;12762;51.730;5.356;2022-10-22T08:20:31;8.47;;;2.47;;
24617;SDS011;12762;51.730;5.356;2022-10-22T08:22:58;5.77;;;1.73;;
24617;SDS011;12762;51.730;5.356;2022-10-22T08:25:25;8.43;;;1.90;;
24617;SDS011;12762;51.730;5.356;2022-10-22T08:27:53;7.00;;;1.60;;
24617;SDS011;12762;51.730;5.356;2022-10-22T08:30:19;8.47;;;1.80;;
24617;SDS011;12762;51.730;5.356;2022-10-22T08:32:46;6.53;;;1.80;;
24617;SDS011;12762;51.730;5.356;2022-10-22T08:35:18;4.97;;;1.70;;
24617;SDS011;12762;51.730;5.356;2022-10-22T08:37:45;6.57;;;1.97;;
24617;SDS011;12762;51.730;5.356;2022-10-22T08:40:18;6.73;;;1.83;;
24617;SDS011;12762;51.730;5.356;2022-10-22T08:45:44;7.93;;;1.60;;
24617;SDS011;12762;51.730;5.356;2022-10-22T08:51:03;10.13;;;1.80;;
24617;SDS011;12762;51.730;5.356;2022-10-22T08:53:36;12.57;;;2.07;;
24617;SDS011;12762;51.730;5.356;2022-10-22T08:56:10;6.47;;;1.60;;
24617;SDS011;12762;51.730;5.356;2022-10-22T09:01:31;6.67;;;1.67;;
24617;SDS011;12762;51.730;5.356;2022-10-22T09:04:10;10.13;;;2.17;;
24617;SDS011;12762;51.730;5.356;2022-10-22T09:06:58;11.00;;;1.80;;
24617;SDS011;12762;51.730;5.356;2022-10-22T09:09:26;4.30;;;1.30;;
24617;SDS011;12762;51.730;5.356;2022-10-22T09:11:58;9.30;;;1.80;;
24617;SDS011;12762;51.730;5.356;2022-10-22T09:14:29;7.97;;;1.80;;
24617;SDS011;12762;51.730;5.356;2022-10-22T09:27:58;7.50;;;1.80;;
24617;SDS011;12762;51.730;5.356;2022-10-22T09:30:26;5.27;;;1.83;;
24617;SDS011;12762;51.730;5.356;2022-10-22T09:35:43;5.87;;;1.80;;
24617;SDS011;12762;51.730;5.356;2022-10-22T09:38:20;8.43;;;1.83;;
24617;SDS011;12762;51.730;5.356;2022-10-22T09:40:52;8.93;;;2.13;;
24617;SDS011;12762;51.730;5.356;2022-10-22T09:43:22;12.17;;;1.50;;
24617;SDS011;12762;51.730;5.356;2022-10-22T09:45:56;9.87;;;2.30;;
24617;SDS011;12762;51.730;5.356;2022-10-22T09:51:05;5.97;;;1.73;;
24617;SDS011;12762;51.730;5.356;2022-10-22T09:53:43;11.03;;;2.23;;
24617;SDS011;12762;51.730;5.356;2022-10-22T09:58:56;9.90;;;2.03;;
24617;SDS011;12762;51.730;5.356;2022-10-22T10:01:24;6.73;;;1.97;;
24617;SDS011;12762;51.730;5.356;2022-10-22T10:03:54;4.10;;;1.50;;
24617;SDS011;12762;51.730;5.356;2022-10-22T10:06:36;7.00;;;1.90;;
24617;SDS011;12762;51.730;5.356;2022-10-22T10:09:10;6.37;;;1.83;;
24617;SDS011;12762;51.730;5.356;2022-10-22T10:12:00;10.13;;;1.80;;
24617;SDS011;12762;51.730;5.356;2022-10-22T10:17:42;9.53;;;1.93;;
24617;SDS011;12762;51.730;5.356;2022-10-22T10:20:26;7.67;;;1.83;;
24617;SDS011;12762;51.730;5.356;2022-10-22T10:23:02;9.07;;;1.60;;
24617;SDS011;12762;51.730;5.356;2022-10-22T10:25:47;10.10;;;1.93;;
24617;SDS011;12762;51.730;5.356;2022-10-22T10:34:21;6.40;;;1.97;;
24617;SDS011;12762;51.730;5.356;2022-10-22T10:37:12;10.17;;;1.63;;
24617;SDS011;12762;51.730;5.356;2022-10-22T10:42:35;10.57;;;1.97;;
24617;SDS011;12762;51.730;5.356;2022-10-22T10:47:54;8.83;;;2.10;;
24617;SDS011;12762;51.730;5.356;2022-10-22T10:53:01;7.93;;;1.70;;
24617;SDS011;12762;51.730;5.356;2022-10-22T10:55:41;10.03;;;1.90;;
24617;SDS011;12762;51.730;5.356;2022-10-22T11:01:26;9.30;;;2.00;;
24617;SDS011;12762;51.730;5.356;2022-10-22T11:06:44;8.97;;;1.70;;
24617;SDS011;12762;51.730;5.356;2022-10-22T11:09:21;13.13;;;2.33;;
24617;SDS011;12762;51.730;5.356;2022-10-22T11:12:19;9.63;;;1.83;;
24617;SDS011;12762;51.730;5.356;2022-10-22T11:15:08;10.47;;;2.27;;
24617;SDS011;12762;51.730;5.356;2022-10-22T11:20:56;8.30;;;1.70;;
24617;SDS011;12762;51.730;5.356;2022-10-22T11:23:49;11.20;;;1.80;;
24617;SDS011;12762;51.730;5.356;2022-10-22T11:29:04;9.00;;;1.77;;
24617;SDS011;12762;51.730;5.356;2022-10-22T11:31:37;8.70;;;1.97;;
24617;SDS011;12762;51.730;5.356;2022-10-22T11:34:17;10.33;;;2.40;;
24617;SDS011;12762;51.730;5.356;2022-10-22T11:37:08;9.37;;;2.00;;
24617;SDS011;12762;51.730;5.356;2022-10-22T11:39:44;9.40;;;2.37;;
24617;SDS011;12762;51.730;5.356;2022-10-22T11:43:07;10.77;;;2.53;;
24617;SDS011;12762;51.730;5.356;2022-10-22T11:47:50;7.90;;;2.17;;
24617;SDS011;12762;51.730;5.356;2022-10-22T11:53:29;9.63;;;2.13;;
24617;SDS011;12762;51.730;5.356;2022-10-22T12:08:41;11.00;;;1.97;;
24617;SDS011;12762;51.730;5.356;2022-10-22T12:16:38;7.90;;;1.83;;
24617;SDS011;12762;51.730;5.356;2022-10-22T12:21:51;10.63;;;2.13;;
24617;SDS011;12762;51.730;5.356;2022-10-22T12:24:24;8.83;;;1.93;;
24617;SDS011;12762;51.730;5.356;2022-10-22T12:26:56;10.67;;;2.07;;
24617;SDS011;12762;51.730;5.356;2022-10-22T12:29:23;6.30;;;1.87;;
24617;SDS011;12762;51.730;5.356;2022-10-22T12:31:51;13.00;;;2.53;;
24617;SDS011;12762;51.730;5.356;2022-10-22T12:34:22;11.30;;;2.50;;
24617;SDS011;12762;51.730;5.356;2022-10-22T12:36:50;14.03;;;2.83;;
24617;SDS011;12762;51.730;5.356;2022-10-22T12:39:23;11.47;;;2.60;;
24617;SDS011;12762;51.730;5.356;2022-10-22T12:41:53;10.50;;;2.93;;
24617;SDS011;12762;51.730;5.356;2022-10-22T12:44:20;11.10;;;2.50;;
24617;SDS011;12762;51.730;5.356;2022-10-22T12:46:57;8.60;;;2.50;;
24617;SDS011;12762;51.730;5.356;2022-10-22T12:49:25;9.70;;;2.20;;
24617;SDS011;12762;51.730;5.356;2022-10-22T12:52:04;9.30;;;2.17;;
24617;SDS011;12762;51.730;5.356;2022-10-22T12:54:38;6.33;;;2.10;;
24617;SDS011;12762;51.730;5.356;2022-10-22T12:57:09;9.90;;;1.77;;
24617;SDS011;12762;51.730;5.356;2022-10-22T12:59:39;10.60;;;2.17;;
24617;SDS011;12762;51.730;5.356;2022-10-22T13:02:16;8.10;;;1.90;;
24617;SDS011;12762;51.730;5.356;2022-10-22T13:05:08;7.73;;;2.20;;
24617;SDS011;12762;51.730;5.356;2022-10-22T13:07:50;8.27;;;1.60;;
24617;SDS011;12762;51.730;5.356;2022-10-22T13:10:24;10.80;;;2.33;;
24617;SDS011;12762;51.730;5.356;2022-10-22T13:12:56;9.97;;;2.90;;
24617;SDS011;12762;51.730;5.356;2022-10-22T13:20:52;6.57;;;1.73;;
24617;SDS011;12762;51.730;5.356;2022-10-22T13:23:23;8.87;;;1.80;;
24617;SDS011;12762;51.730;5.356;2022-10-22T13:25:55;9.13;;;1.90;;
24617;SDS011;12762;51.730;5.356;2022-10-22T13:28:28;8.37;;;1.50;;
24617;SDS011;12762;51.730;5.356;2022-10-22T13:30:58;9.27;;;2.20;;
24617;SDS011;12762;51.730;5.356;2022-10-22T13:33:34;5.30;;;1.73;;
24617;SDS011;12762;51.730;5.356;2022-10-22T13:36:03;5.93;;;1.70;;
24617;SDS011;12762;51.730;5.356;2022-10-22T13:38:30;6.53;;;1.60;;
24617;SDS011;12762;51.730;5.356;2022-10-22T13:40:57;7.53;;;1.57;;
24617;SDS011;12762;51.730;5.356;2022-10-22T13:43:24;8.20;;;1.60;;
24617;SDS011;12762;51.730;5.356;2022-10-22T13:45:52;8.17;;;1.77;;
24617;SDS011;12762;51.730;5.356;2022-10-22T13:48:23;8.97;;;1.90;;
24617;SDS011;12762;51.730;5.356;2022-10-22T13:50:53;12.13;;;2.40;;
24617;SDS011;12762;51.730;5.356;2022-10-22T13:53:21;8.20;;;2.07;;
24617;SDS011;12762;51.730;5.356;2022-10-22T13:55:50;7.53;;;2.00;;
24617;SDS011;12762;51.730;5.356;2022-10-22T13:58:18;9.50;;;1.93;;
24617;SDS011;12762;51.730;5.356;2022-10-22T14:00:48;9.77;;;2.17;;
24617;SDS011;12762;51.730;5.356;2022-10-22T14:03:19;10.97;;;2.00;;
24617;SDS011;12762;51.730;5.356;2022-10-22T14:05:48;8.33;;;2.00;;
24617;SDS011;12762;51.730;5.356;2022-10-22T14:08:16;9.43;;;2.07;;
24617;SDS011;12762;51.730;5.356;2022-10-22T14:10:45;9.03;;;1.90;;
24617;SDS011;12762;51.730;5.356;2022-10-22T14:13:12;8.83;;;1.80;;
24617;SDS011;12762;51.730;5.356;2022-10-22T14:15:41;12.17;;;2.00;;
24617;SDS011;12762;51.730;5.356;2022-10-22T14:18:10;8.47;;;1.90;;
24617;SDS011;12762;51.730;5.356;2022-10-22T14:20:43;8.00;;;1.33;;
24617;SDS011;12762;51.730;5.356;2022-10-22T14:23:19;9.03;;;1.73;;
24617;SDS011;12762;51.730;5.356;2022-10-22T14:25:48;7.07;;;1.87;;
24617;SDS011;12762;51.730;5.356;2022-10-22T14:28:17;6.87;;;1.80;;
24617;SDS011;12762;51.730;5.356;2022-10-22T14:30:44;6.40;;;1.80;;
24617;SDS011;12762;51.730;5.356;2022-10-22T14:33:20;6.53;;;1.67;;
24617;SDS011;12762;51.730;5.356;2022-10-22T14:35:58;7.00;;;1.90;;
24617;SDS011;12762;51.730;5.356;2022-10-22T14:38:25;5.53;;;1.97;;
24617;SDS011;12762;51.730;5.356;2022-10-22T14:40:52;10.93;;;2.73;;
24617;SDS011;12762;51.730;5.356;2022-10-22T14:43:24;6.20;;;1.70;;
24617;SDS011;12762;51.730;5.356;2022-10-22T14:45:52;7.83;;;1.53;;
24617;SDS011;12762;51.730;5.356;2022-10-22T14:48:20;7.60;;;1.60;;
24617;SDS011;12762;51.730;5.356;2022-10-22T14:50:47;6.83;;;1.60;;
24617;SDS011;12762;51.730;5.356;2022-10-22T14:53:14;8.87;;;1.77;;
24617;SDS011;12762;51.730;5.356;2022-10-22T14:55:44;8.03;;;1.47;;
24617;SDS011;12762;51.730;5.356;2022-10-22T14:58:12;10.43;;;2.00;;
24617;SDS011;12762;51.730;5.356;2022-10-22T15:00:40;7.67;;;1.77;;
24617;SDS011;12762;51.730;5.356;2022-10-22T15:03:08;8.40;;;1.90;;
24617;SDS011;12762;51.730;5.356;2022-10-22T15:05:39;5.40;;;1.70;;
24617;SDS011;12762;51.730;5.356;2022-10-22T15:08:18;8.00;;;2.27;;
24617;SDS011;12762;51.730;5.356;2022-10-22T15:10:56;4.97;;;1.77;;
24617;SDS011;12762;51.730;5.356;2022-10-22T15:13:27;10.63;;;2.00;;
24617;SDS011;12762;51.730;5.356;2022-10-22T15:15:55;7.27;;;1.53;;
24617;SDS011;12762;51.730;5.356;2022-10-22T15:18:23;7.40;;;1.40;;
24617;SDS011;12762;51.730;5.356;2022-10-22T15:20:54;7.40;;;1.47;;
24617;SDS011;12762;51.730;5.356;2022-10-22T15:23:22;6.67;;;1.40;;
24617;SDS011;12762;51.730;5.356;2022-10-22T15:25:49;6.80;;;1.47;;
24617;SDS011;12762;51.730;5.356;2022-10-22T15:28:16;7.60;;;1.70;;
24617;SDS011;12762;51.730;5.356;2022-10-22T15:30:42;6.23;;;1.87;;
24617;SDS011;12762;51.730;5.356;2022-10-22T15:33:09;8.63;;;2.00;;
24617;SDS011;12762;51.730;5.356;2022-10-22T15:35:36;7.37;;;1.53;;
24617;SDS011;12762;51.730;5.356;2022-10-22T15:38:03;5.90;;;1.53;;
24617;SDS011;12762;51.730;5.356;2022-10-22T15:40:34;6.87;;;1.47;;
24617;SDS011;12762;51.730;5.356;2022-10-22T15:43:01;6.17;;;1.60;;
24617;SDS011;12762;51.730;5.356;2022-10-22T15:45:27;8.13;;;1.37;;
24617;SDS011;12762;51.730;5.356;2022-10-22T15:47:54;5.07;;;1.60;;
24617;SDS011;12762;51.730;5.356;2022-10-22T15:50:21;9.37;;;2.03;;
24617;SDS011;12762;51.730;5.356;2022-10-22T15:52:47;7.20;;;1.77;;
24617;SDS011;12762;51.730;5.356;2022-10-22T15:55:14;8.87;;;1.87;;
24617;SDS011;12762;51.730;5.356;2022-10-22T15:57:41;7.90;;;1.80;;
24617;SDS011;12762;51.730;5.356;2022-10-22T16:00:09;7.13;;;2.10;;
24617;SDS011;12762;51.730;5.356;2022-10-22T16:02:36;5.10;;;1.70;;
24617;SDS011;12762;51.730;5.356;2022-10-22T16:05:03;12.10;;;1.90;;
24617;SDS011;12762;51.730;5.356;2022-10-22T16:07:30;9.40;;;2.50;;
24617;SDS011;12762;51.730;5.356;2022-10-22T16:09:57;6.87;;;1.80;;
24617;SDS011;12762;51.730;5.356;2022-10-22T16:12:25;8.57;;;2.60;;
24617;SDS011;12762;51.730;5.356;2022-10-22T16:14:52;13.13;;;3.77;;
24617;SDS011;12762;51.730;5.356;2022-10-22T16:17:19;9.63;;;3.87;;
24617;SDS011;12762;51.730;5.356;2022-10-22T16:19:46;12.77;;;3.73;;
24617;SDS011;12762;51.730;5.356;2022-10-22T16:22:13;11.50;;;4.10;;
24617;SDS011;12762;51.730;5.356;2022-10-22T16:24:40;9.40;;;2.77;;
24617;SDS011;12762;51.730;5.356;2022-10-22T16:27:07;12.97;;;3.60;;
24617;SDS011;12762;51.730;5.356;2022-10-22T16:29:38;11.40;;;2.70;;
24617;SDS011;12762;51.730;5.356;2022-10-22T16:32:05;9.90;;;2.13;;
24617;SDS011;12762;51.730;5.356;2022-10-22T16:34:33;7.77;;;2.73;;
24617;SDS011;12762;51.730;5.356;2022-10-22T16:37:00;6.03;;;1.97;;
24617;SDS011;12762;51.730;5.356;2022-10-22T16:39:27;6.57;;;2.70;;
24617;SDS011;12762;51.730;5.356;2022-10-22T16:41:54;7.83;;;2.30;;
24617;SDS011;12762;51.730;5.356;2022-10-22T16:44:21;10.20;;;2.70;;
24617;SDS011;12762;51.730;5.356;2022-10-22T16:46:48;7.13;;;2.40;;
24617;SDS011;12762;51.730;5.356;2022-10-22T16:49:18;7.60;;;2.83;;
24617;SDS011;12762;51.730;5.356;2022-10-22T16:51:45;7.20;;;2.30;;
24617;SDS011;12762;51.730;5.356;2022-10-22T16:54:12;7.70;;;2.30;;
24617;SDS011;12762;51.730;5.356;2022-10-22T16:56:40;10.07;;;4.03;;
24617;SDS011;12762;51.730;5.356;2022-10-22T16:59:07;10.27;;;3.33;;
24617;SDS011;12762;51.730;5.356;2022-10-22T17:01:34;10.00;;;3.87;;
24617;SDS011;12762;51.730;5.356;2022-10-22T17:04:06;10.60;;;4.37;;